Bristol, United Kingdom

19:53 BST dnia 27-wrzesień-2016 (GMT +0100)
Redland, Bristol | | Change Station

Wysokość 148 ft 51.47 °N, 2.60 °W | Updated 3 minutes ago

Mostly Cloudy
przewaga chmur
58.8 ° F
Odczuwalna 58.8 ° F
Płn.
3.0
Wiatr zmienny Wiatr od zachodni
Gusts 5.0 mph

Dziś
Wysoka -- | Niska -- ° F
--% Prawdop. opadów
Wczoraj
Wysoka -- | Niska -- ° F
Precip. -- cali
Ciśnienie 30.24 cali
Widzialność 6.2 mil
chmury przewaga chmur 1300 ft
Punkt rosy 55 ° F
Wilgotność 87%
Opady deszczu 0.00 cali
grubość pokrywy śnieżnej Niedostępne.
7:05 AM 6:56 PM
Zmniejszający się sierp Księżyca, 10% visible
METAR EGGD 271820Z AUTO 26011KT 9999 BKN013 14/12 Q1024
Ciśnienie 30.24 cali
Widzialność 6.2 mil
chmury przewaga chmur 1300 ft
Punkt rosy 55 ° F
Wilgotność 87%
Opady deszczu 0.00 cali
grubość pokrywy śnieżnej Niedostępne.
7:05 AM 6:56 PM
Zmniejszający się sierp Księżyca, 10% visible
METAR EGGD 271820Z AUTO 26011KT 9999 BKN013 14/12 Q1024

10-Day Weather Forecast

×

Almanac

Astronomia

Sep. 27, 2016 Wschód Zachów
Aktualny czas
Zmierzch cywilny
Zmierzch żeglarski
świt/zmierzch astronomiczny
Księżyc
całkowite oświetlenie
Długość dnia
Tomorrow will be .
, % of the Moon is Illuminated

Dzisiejsze ekstrema

Country Highs Country Lows

Community

WunderPhotos

Upload Photos

1,942,156 zdjęcia zostały przesłane!

WunderBlog® & News

Nearby

Jakość powietrza

  Jakość powietrza czynnik AQ Zanieczyszczenie
Not available.

Głębokość pokrywy śnieżnej

Station Depth n.p.m.

Aktywność sejsmiczna

Miejscowość Distance Mag. Time & Date
Minimum magnitude displayed is 2.5.

Temperatury wody na wybrzeżu

Miejsce Temperatura

Stations

Najbliższa stacja pogodowa

Lokalizacja stacji Temp. czynnik chłodzący wiatru Punkt rosy Wilgotność Wiatr Precip. Wysokość Uaktualniono Typ